Terminal Aerodrome Forecast
Issued by NWS

Home | Current Version | Previous Version | Text Only | Print | Product List | Glossary Off
Versions: 1 2 3 4 5 6 7 8 9 10 11 12 13 14 15 16 17 18 19 20

197
FTUS43 KUNR 220729 AAA
TAFGCC
TAF AMD
KGCC 220729Z 2207/2306 16022G32KT P6SM SCT009
      TEMPO 2208/2210 P6SM BKN009
     FM221000 18020G30KT P6SM SCT080
     FM221700 26013KT P6SM SCT250
     FM221900 34010KT P6SM SCT200
     FM230400 07007KT P6SM BKN090=

USA.gov is the U.S. government's official web portal to all federal, state and local government web resources and services.